createdAt,value
2022-11-29T00:01:06.691Z,3.30
2022-11-29T00:03:33.972Z,3.63
2022-11-29T00:06:08.696Z,3.90
2022-11-29T00:08:36.328Z,2.90
2022-11-29T00:11:07.836Z,4.80
2022-11-29T00:13:35.000Z,3.70
2022-11-29T00:16:10.474Z,3.43
2022-11-29T00:18:37.508Z,3.67
2022-11-29T00:21:07.988Z,3.80
2022-11-29T00:23:35.733Z,2.80
2022-11-29T00:26:06.437Z,3.83
2022-11-29T00:28:34.014Z,2.83
2022-11-29T00:31:00.871Z,2.83
2022-11-29T00:33:27.537Z,3.37
2022-11-29T00:35:54.101Z,3.20
2022-11-29T00:38:20.626Z,5.47
2022-11-29T00:40:51.779Z,4.13
2022-11-29T00:43:18.372Z,2.43
2022-11-29T00:45:44.933Z,3.40
2022-11-29T00:48:11.489Z,3.27
2022-11-29T00:50:38.050Z,2.73
2022-11-29T00:53:04.609Z,3.03
2022-11-29T00:55:31.128Z,3.03
2022-11-29T00:57:57.650Z,4.43
2022-11-29T01:00:24.370Z,3.50
2022-11-29T01:02:50.948Z,2.97
2022-11-29T01:05:17.592Z,2.90
2022-11-29T01:07:44.198Z,2.90
2022-11-29T01:10:10.821Z,2.87
2022-11-29T01:12:38.399Z,3.40
2022-11-29T01:15:06.819Z,3.57
2022-11-29T01:17:38.617Z,3.30
2022-11-29T01:20:07.264Z,3.00
2022-11-29T01:22:38.030Z,3.00
2022-11-29T01:25:06.081Z,3.20
2022-11-29T01:27:33.089Z,3.70
2022-11-29T01:29:59.764Z,2.80
2022-11-29T01:32:26.529Z,2.53
2022-11-29T01:34:53.164Z,5.30
2022-11-29T01:37:19.743Z,3.07
2022-11-29T01:39:46.374Z,2.33
2022-11-29T01:42:14.189Z,2.60
2022-11-29T01:44:46.815Z,3.37
2022-11-29T01:47:13.645Z,2.70
2022-11-29T01:49:45.735Z,3.27
2022-11-29T01:52:20.645Z,3.23
2022-11-29T01:54:50.232Z,2.50
2022-11-29T01:57:18.225Z,3.10
2022-11-29T01:59:48.886Z,3.20
2022-11-29T02:02:23.069Z,2.63
2022-11-29T02:04:49.907Z,2.43
2022-11-29T02:07:17.030Z,2.47
2022-11-29T02:09:43.919Z,4.13
2022-11-29T02:12:10.449Z,3.60
2022-11-29T02:15:02.244Z,2.40
2022-11-29T02:17:46.851Z,2.70
2022-11-29T02:20:32.363Z,2.60
2022-11-29T02:23:32.886Z,3.00
2022-11-29T02:26:33.368Z,2.37
2022-11-29T02:30:02.728Z,2.87
2022-11-29T02:32:40.979Z,2.60
2022-11-29T02:35:34.227Z,2.50
2022-11-29T02:38:23.445Z,3.23
2022-11-29T02:41:12.087Z,3.10
2022-11-29T02:44:19.683Z,2.63
2022-11-29T02:47:10.373Z,2.97
2022-11-29T02:50:20.008Z,2.57
2022-11-29T02:53:14.016Z,4.57
2022-11-29T02:56:07.261Z,2.77
2022-11-29T02:59:01.869Z,3.23
2022-11-29T03:02:01.365Z,2.53
2022-11-29T03:04:43.132Z,2.60
2022-11-29T03:07:31.378Z,2.53
2022-11-29T03:10:16.637Z,2.37
2022-11-29T03:12:50.157Z,2.63
2022-11-29T03:15:33.800Z,2.47
2022-11-29T03:18:05.603Z,3.47
2022-11-29T03:20:43.800Z,2.50
2022-11-29T03:23:37.064Z,2.83
2022-11-29T03:26:09.132Z,2.70
2022-11-29T03:29:07.086Z,2.83
2022-11-29T03:31:33.595Z,2.53
2022-11-29T03:34:20.180Z,2.73
2022-11-29T03:36:56.593Z,2.50
2022-11-29T03:39:56.270Z,2.83
2022-11-29T03:42:39.565Z,3.10
2022-11-29T03:45:16.289Z,2.60
2022-11-29T03:48:04.645Z,2.53
2022-11-29T03:50:54.684Z,4.03
2022-11-29T03:53:35.783Z,2.53
2022-11-29T03:56:22.227Z,2.57
2022-11-29T03:59:03.772Z,2.40
2022-11-29T04:02:07.186Z,3.27
2022-11-29T04:04:52.573Z,2.27
2022-11-29T04:07:45.014Z,2.77
2022-11-29T04:10:47.145Z,3.23
2022-11-29T04:13:32.041Z,3.20
2022-11-29T04:16:08.787Z,2.37
2022-11-29T04:19:05.859Z,2.57
2022-11-29T04:21:44.689Z,3.10
2022-11-29T04:24:48.892Z,2.23
2022-11-29T04:27:30.136Z,2.50
2022-11-29T04:30:22.411Z,2.53
2022-11-29T04:33:04.052Z,2.17
2022-11-29T04:35:38.393Z,3.20
2022-11-29T04:38:10.728Z,3.07
2022-11-29T04:41:10.319Z,3.33
2022-11-29T04:43:54.970Z,2.53
2022-11-29T04:46:40.458Z,2.20
2022-11-29T04:49:09.997Z,2.33
2022-11-29T04:52:01.345Z,3.27
2022-11-29T04:54:43.243Z,2.17
2022-11-29T04:57:41.429Z,2.60
2022-11-29T05:00:20.908Z,2.30
2022-11-29T05:02:59.980Z,1.87
2022-11-29T05:05:35.444Z,2.30
2022-11-29T05:08:08.007Z,2.23
2022-11-29T05:10:59.147Z,2.40
2022-11-29T05:13:54.472Z,2.50
2022-11-29T05:16:37.567Z,2.83
2022-11-29T05:19:45.318Z,2.30
2022-11-29T05:22:42.781Z,2.10
2022-11-29T05:25:15.189Z,2.13
2022-11-29T05:28:09.663Z,2.50
2022-11-29T05:30:58.683Z,2.43
2022-11-29T05:33:43.368Z,2.27
2022-11-29T05:36:32.854Z,1.93
2022-11-29T05:39:14.818Z,2.47
2022-11-29T05:41:44.113Z,2.70
2022-11-29T05:44:24.632Z,2.27
2022-11-29T05:46:59.348Z,2.33
2022-11-29T05:49:47.178Z,2.63
2022-11-29T05:52:40.136Z,2.07
2022-11-29T05:55:30.999Z,2.37
2022-11-29T05:58:27.073Z,2.43
2022-11-29T06:01:07.379Z,2.93
2022-11-29T06:03:39.081Z,3.87
2022-11-29T06:06:30.428Z,2.27
2022-11-29T06:09:21.686Z,2.67
2022-11-29T06:12:02.398Z,2.10
2022-11-29T06:14:56.893Z,2.53
2022-11-29T06:17:55.050Z,2.20
2022-11-29T06:20:33.429Z,2.27
2022-11-29T06:23:25.328Z,2.93
2022-11-29T06:26:00.683Z,2.60
2022-11-29T06:28:42.856Z,2.20
2022-11-29T06:31:16.215Z,2.43
2022-11-29T06:34:01.222Z,2.50
2022-11-29T06:36:51.624Z,3.60
2022-11-29T06:39:18.449Z,1.70
2022-11-29T06:41:45.104Z,2.43
2022-11-29T06:44:11.953Z,2.43
2022-11-29T06:47:13.947Z,2.63
2022-11-29T06:49:50.925Z,2.43
2022-11-29T06:52:36.213Z,2.20
2022-11-29T06:55:19.072Z,2.80
2022-11-29T06:58:00.744Z,2.07
2022-11-29T07:00:40.687Z,2.23
2022-11-29T07:03:19.097Z,8.93
2022-11-29T07:05:46.645Z,12.07
2022-11-29T07:08:19.408Z,13.97
2022-11-29T07:10:49.986Z,15.43
2022-11-29T07:13:20.570Z,14.20
2022-11-29T07:16:35.536Z,14.20
2022-11-29T07:19:20.575Z,14.67
2022-11-29T07:22:11.764Z,14.10
2022-11-29T07:24:54.680Z,14.17
2022-11-29T07:27:32.947Z,13.73
2022-11-29T07:30:18.712Z,13.40
2022-11-29T07:33:12.639Z,11.53
2022-11-29T07:35:50.604Z,10.07
2022-11-29T07:38:49.279Z,11.23
2022-11-29T07:41:37.196Z,12.40
2022-11-29T07:45:12.711Z,8.63
2022-11-29T07:47:39.333Z,11.30
2022-11-29T07:50:06.523Z,9.10
2022-11-29T07:52:33.637Z,9.63
2022-11-29T07:55:00.266Z,8.07
2022-11-29T07:57:26.885Z,10.97
2022-11-29T07:59:53.516Z,8.20
2022-11-29T08:02:30.953Z,10.30
2022-11-29T08:04:57.859Z,8.47
2022-11-29T08:07:25.079Z,9.33
2022-11-29T08:09:51.904Z,9.10
2022-11-29T08:12:18.504Z,7.50
2022-11-29T08:14:45.282Z,7.03
2022-11-29T08:17:12.166Z,7.50
2022-11-29T08:19:38.878Z,9.23
2022-11-29T08:22:05.501Z,10.00
2022-11-29T08:24:32.131Z,7.27
2022-11-29T08:26:58.898Z,7.97
2022-11-29T08:29:25.489Z,6.70
2022-11-29T08:31:53.391Z,7.53
2022-11-29T08:34:21.721Z,7.47
2022-11-29T08:36:49.050Z,8.60
2022-11-29T08:39:15.918Z,7.63
2022-11-29T08:41:43.124Z,7.13
2022-11-29T08:44:10.086Z,7.40
2022-11-29T08:46:55.548Z,8.30
2022-11-29T08:49:22.097Z,6.53
2022-11-29T08:51:50.777Z,7.40
2022-11-29T08:54:17.301Z,7.27
2022-11-29T08:59:30.515Z,6.70
2022-11-29T09:01:57.194Z,7.17
2022-11-29T09:04:23.782Z,6.23
2022-11-29T09:06:50.444Z,7.00
2022-11-29T09:09:17.548Z,6.70
2022-11-29T09:11:48.242Z,7.00
2022-11-29T09:14:17.372Z,7.03
2022-11-29T09:16:44.045Z,7.80
2022-11-29T09:19:13.574Z,5.97
2022-11-29T09:21:40.350Z,6.50
2022-11-29T09:24:07.907Z,6.43
2022-11-29T09:26:36.751Z,8.03
2022-11-29T09:29:05.352Z,6.27
2022-11-29T09:31:33.185Z,6.23
2022-11-29T09:33:59.873Z,5.87
2022-11-29T09:36:29.258Z,6.77
2022-11-29T09:38:56.987Z,6.20
2022-11-29T09:41:49.227Z,6.07
2022-11-29T09:44:53.606Z,6.80
2022-11-29T09:47:32.758Z,5.87
2022-11-29T09:50:42.838Z,5.47
2022-11-29T09:53:37.865Z,5.97
2022-11-29T09:56:18.309Z,5.50
2022-11-29T09:58:51.807Z,6.83
2022-11-29T10:01:26.807Z,6.07
2022-11-29T10:03:57.076Z,6.30
2022-11-29T10:06:38.561Z,6.00
2022-11-29T10:09:30.821Z,6.73
2022-11-29T10:12:26.336Z,6.77
2022-11-29T10:15:11.335Z,5.80
2022-11-29T10:17:44.597Z,7.13
2022-11-29T10:20:22.388Z,5.17
2022-11-29T10:22:55.931Z,5.70
2022-11-29T10:25:34.325Z,6.10
2022-11-29T10:28:00.920Z,5.57
2022-11-29T10:30:27.582Z,5.67
2022-11-29T10:33:00.376Z,6.57
2022-11-29T10:35:27.317Z,5.67
2022-11-29T10:38:29.115Z,5.90
2022-11-29T10:40:48.968Z,6.27
2022-11-29T10:43:15.686Z,6.03
2022-11-29T10:45:50.038Z,5.23
2022-11-29T10:48:21.844Z,5.97
2022-11-29T10:50:50.134Z,7.77
2022-11-29T10:53:31.018Z,5.53
2022-11-29T10:56:27.372Z,6.60
2022-11-29T10:58:55.285Z,6.00
2022-11-29T11:01:22.509Z,5.93
2022-11-29T11:03:54.431Z,5.33
2022-11-29T11:06:26.685Z,4.80
2022-11-29T11:09:11.062Z,5.90
2022-11-29T11:11:38.596Z,6.50
2022-11-29T11:14:22.138Z,5.20
2022-11-29T11:16:48.925Z,5.57
2022-11-29T11:19:32.614Z,6.07
2022-11-29T11:22:01.827Z,5.33
2022-11-29T11:24:40.942Z,5.50
2022-11-29T11:27:07.880Z,5.10
2022-11-29T11:29:44.161Z,5.50
2022-11-29T11:32:20.097Z,5.23
2022-11-29T11:35:01.255Z,5.83
2022-11-29T11:37:29.871Z,5.50
2022-11-29T11:40:19.137Z,7.23
2022-11-29T11:42:46.318Z,5.53
2022-11-29T11:45:12.908Z,5.13
2022-11-29T11:47:44.506Z,5.63
2022-11-29T11:50:31.376Z,5.67
2022-11-29T11:53:20.053Z,7.50
2022-11-29T11:56:19.804Z,5.60
2022-11-29T11:58:55.318Z,6.27
2022-11-29T12:01:35.924Z,5.90
2022-11-29T12:04:30.746Z,5.40
2022-11-29T12:07:17.041Z,4.90
2022-11-29T12:09:51.231Z,5.53
2022-11-29T12:12:27.936Z,5.83
2022-11-29T12:14:56.266Z,5.57
2022-11-29T12:17:34.721Z,6.47
2022-11-29T12:20:10.255Z,7.40
2022-11-29T12:22:51.869Z,7.73
2022-11-29T12:25:24.309Z,6.00
2022-11-29T12:27:51.596Z,6.20
2022-11-29T12:30:19.272Z,5.63
2022-11-29T12:33:17.701Z,5.10
2022-11-29T12:35:55.185Z,6.73
2022-11-29T12:38:49.427Z,5.73
2022-11-29T12:41:34.618Z,6.00
2022-11-29T12:44:41.829Z,6.03
2022-11-29T12:47:35.350Z,5.97
2022-11-29T12:50:38.682Z,5.57
2022-11-29T12:53:29.260Z,8.47
2022-11-29T12:56:20.504Z,8.80
2022-11-29T12:59:22.361Z,8.70
2022-11-29T13:01:58.783Z,8.87
2022-11-29T13:04:59.412Z,16.73
2022-11-29T13:07:49.512Z,11.40
2022-11-29T13:10:26.912Z,9.77
2022-11-29T13:13:24.390Z,12.10
2022-11-29T13:16:01.449Z,10.73
2022-11-29T13:18:37.717Z,8.33
2022-11-29T13:21:16.820Z,5.90
2022-11-29T13:24:08.870Z,7.00
2022-11-29T13:26:38.386Z,7.07
2022-11-29T13:29:07.350Z,7.83
2022-11-29T13:31:34.594Z,6.90
2022-11-29T13:34:13.160Z,9.03
2022-11-29T13:36:52.356Z,6.00
2022-11-29T13:39:37.763Z,6.07
2022-11-29T13:42:15.325Z,6.40
2022-11-29T13:44:50.743Z,7.30
2022-11-29T13:47:18.836Z,7.27
2022-11-29T13:50:02.563Z,5.77
2022-11-29T13:52:39.652Z,6.67
2022-11-29T13:55:12.054Z,5.30
2022-11-29T13:58:27.361Z,5.80
2022-11-29T14:00:59.470Z,5.77
2022-11-29T14:03:31.016Z,8.80
2022-11-29T14:06:21.921Z,5.57
2022-11-29T14:09:19.673Z,6.43
2022-11-29T14:12:27.921Z,7.60
2022-11-29T14:15:02.661Z,5.47
2022-11-29T14:17:48.219Z,7.60
2022-11-29T14:20:24.806Z,6.30
2022-11-29T14:23:07.385Z,8.40
2022-11-29T14:25:54.216Z,5.47
2022-11-29T14:28:20.735Z,7.00
2022-11-29T14:30:51.001Z,13.23
2022-11-29T14:33:41.430Z,14.57
2022-11-29T14:36:25.231Z,16.03
2022-11-29T14:39:13.666Z,17.77
2022-11-29T14:41:54.966Z,18.30
2022-11-29T14:44:28.019Z,21.07
2022-11-29T14:47:06.976Z,17.73
2022-11-29T14:49:45.131Z,21.10
2022-11-29T14:52:14.412Z,21.90
2022-11-29T14:55:00.275Z,17.90
2022-11-29T14:57:47.991Z,16.47
2022-11-29T15:00:15.587Z,18.37
2022-11-29T15:02:50.729Z,17.93
2022-11-29T15:05:19.389Z,18.87
2022-11-29T15:07:52.773Z,18.53
2022-11-29T15:10:24.148Z,16.97
2022-11-29T15:12:51.224Z,19.13
2022-11-29T15:15:46.891Z,16.10
2022-11-29T15:18:36.791Z,15.23
2022-11-29T15:21:03.377Z,12.33
2022-11-29T15:23:42.763Z,12.90
2022-11-29T15:26:20.839Z,14.63
2022-11-29T15:28:47.653Z,14.27
2022-11-29T15:31:18.692Z,15.07
2022-11-29T15:33:48.482Z,9.73
2022-11-29T15:36:20.499Z,18.40
2022-11-29T15:38:51.453Z,12.63
2022-11-29T15:41:34.196Z,10.70
2022-11-29T15:44:05.698Z,15.07
2022-11-29T15:46:35.216Z,11.40
2022-11-29T15:49:18.576Z,13.07
2022-11-29T15:51:49.169Z,12.70
2022-11-29T15:54:41.919Z,12.83
2022-11-29T15:57:14.252Z,12.07
2022-11-29T15:59:42.895Z,10.30
2022-11-29T16:02:15.569Z,10.90
2022-11-29T16:04:46.858Z,11.30
2022-11-29T16:07:14.780Z,10.33
2022-11-29T16:09:55.124Z,9.57
2022-11-29T16:12:21.706Z,13.33
2022-11-29T16:14:53.503Z,9.47
2022-11-29T16:17:21.010Z,11.10
2022-11-29T16:19:48.427Z,9.63
2022-11-29T16:22:22.783Z,9.90
2022-11-29T16:25:02.720Z,10.03
2022-11-29T16:27:35.132Z,9.50
2022-11-29T16:30:02.659Z,10.60
2022-11-29T16:32:36.118Z,9.87
2022-11-29T16:35:22.929Z,8.13
2022-11-29T16:37:49.837Z,8.57
2022-11-29T16:40:23.952Z,9.07
2022-11-29T16:43:10.810Z,8.77
2022-11-29T16:45:41.147Z,8.77
2022-11-29T16:48:23.123Z,8.80
2022-11-29T16:51:13.170Z,11.67
2022-11-29T16:53:43.642Z,8.70
2022-11-29T16:56:15.237Z,9.37
2022-11-29T16:59:16.982Z,8.70
2022-11-29T17:01:31.820Z,8.37
2022-11-29T17:03:59.993Z,10.17
2022-11-29T17:06:29.126Z,8.43
2022-11-29T17:08:57.518Z,10.30
2022-11-29T17:11:24.525Z,10.07
2022-11-29T17:13:51.357Z,10.00
2022-11-29T17:16:21.366Z,8.50
2022-11-29T17:18:48.513Z,9.67
2022-11-29T17:21:23.593Z,20.93
2022-11-29T17:23:51.184Z,23.30
2022-11-29T17:26:18.793Z,23.27
2022-11-29T17:28:46.740Z,23.87
2022-11-29T17:31:23.016Z,23.90
2022-11-29T17:33:50.507Z,15.97
2022-11-29T17:36:20.410Z,16.37
2022-11-29T17:38:47.895Z,16.57
2022-11-29T17:41:20.693Z,19.50
2022-11-29T17:43:47.750Z,16.63
2022-11-29T17:46:20.552Z,16.37
2022-11-29T17:48:47.774Z,14.93
2022-11-29T17:51:43.809Z,14.33
2022-11-29T17:54:04.314Z,16.07
2022-11-29T17:56:31.172Z,15.50
2022-11-29T17:58:59.920Z,16.57
2022-11-29T18:01:29.332Z,12.83
2022-11-29T18:03:59.380Z,16.13
2022-11-29T18:06:33.397Z,12.07
2022-11-29T18:09:01.465Z,11.00
2022-11-29T18:11:48.040Z,17.43
2022-11-29T18:14:23.801Z,13.70
2022-11-29T18:16:51.785Z,11.87
2022-11-29T18:19:21.024Z,12.50
2022-11-29T18:21:49.595Z,12.83
2022-11-29T18:24:16.570Z,11.27
2022-11-29T18:26:44.047Z,13.23
2022-11-29T18:29:11.001Z,11.00
2022-11-29T18:31:40.690Z,11.20
2022-11-29T18:34:12.864Z,11.27
2022-11-29T18:36:47.534Z,10.40
2022-11-29T18:39:19.686Z,9.77
2022-11-29T18:41:50.218Z,11.60
2022-11-29T18:44:19.366Z,9.67
2022-11-29T18:46:46.357Z,11.60
2022-11-29T18:49:15.017Z,10.47
2022-11-29T18:51:44.512Z,9.23
2022-11-29T18:54:11.602Z,10.10
2022-11-29T18:56:38.756Z,10.07
2022-11-29T18:59:14.911Z,7.37
2022-11-29T19:01:43.049Z,7.70
2022-11-29T19:04:12.093Z,8.67
2022-11-29T19:06:40.107Z,8.53
2022-11-29T19:09:11.027Z,11.60
2022-11-29T19:11:37.687Z,15.83
2022-11-29T19:14:10.911Z,16.50
2022-11-29T19:16:39.086Z,14.27
2022-11-29T19:19:05.904Z,15.40
2022-11-29T19:21:32.868Z,17.40
2022-11-29T19:24:01.605Z,16.43
2022-11-29T19:26:30.193Z,12.97
2022-11-29T19:28:56.849Z,12.30
2022-11-29T19:31:25.151Z,13.93
2022-11-29T19:33:52.723Z,10.90
2022-11-29T19:36:27.911Z,10.37
2022-11-29T19:38:55.175Z,11.37
2022-11-29T19:41:28.909Z,11.30
2022-11-29T19:44:00.879Z,9.27
2022-11-29T19:46:33.954Z,9.97
2022-11-29T19:49:01.942Z,12.03
2022-11-29T19:51:30.092Z,13.00
2022-11-29T19:53:59.663Z,9.97
2022-11-29T19:56:26.759Z,14.77
2022-11-29T19:58:54.100Z,10.33
2022-11-29T20:01:27.974Z,10.93
2022-11-29T20:03:58.425Z,12.83
2022-11-29T20:06:30.081Z,7.77
2022-11-29T20:08:57.010Z,10.50
2022-11-29T20:11:24.781Z,12.37
2022-11-29T20:13:59.877Z,10.60
2022-11-29T20:16:27.841Z,8.03
2022-11-29T20:18:55.156Z,8.67
2022-11-29T20:21:30.474Z,8.83
2022-11-29T20:24:02.366Z,8.83
2022-11-29T20:26:31.139Z,9.60
2022-11-29T20:28:58.146Z,6.90
2022-11-29T20:31:24.919Z,10.83
2022-11-29T20:33:53.986Z,8.33
2022-11-29T20:36:58.370Z,8.00
2022-11-29T20:39:52.108Z,8.37
2022-11-29T20:42:37.323Z,8.37
2022-11-29T20:45:08.262Z,8.50
2022-11-29T20:47:44.992Z,7.37
2022-11-29T20:50:23.282Z,10.57
2022-11-29T20:53:11.856Z,7.90
2022-11-29T20:55:43.692Z,7.90
2022-11-29T20:58:12.938Z,9.67
2022-11-29T21:00:39.605Z,9.37
2022-11-29T21:03:06.214Z,7.93
2022-11-29T21:05:32.788Z,6.40
2022-11-29T21:07:59.421Z,7.27
2022-11-29T21:10:26.005Z,7.50
2022-11-29T21:12:52.929Z,6.80
2022-11-29T21:15:19.969Z,7.63
2022-11-29T21:17:46.774Z,8.90
2022-11-29T21:20:23.437Z,8.07
2022-11-29T21:23:06.713Z,7.73
2022-11-29T21:25:42.645Z,7.47
2022-11-29T21:28:14.039Z,8.53
2022-11-29T21:30:41.755Z,7.37
2022-11-29T21:33:09.074Z,8.60
2022-11-29T21:35:39.544Z,7.97
2022-11-29T21:38:10.034Z,7.03
2022-11-29T21:40:36.605Z,9.93
2022-11-29T21:43:03.217Z,9.00
2022-11-29T21:45:29.848Z,6.93
2022-11-29T21:48:00.279Z,7.57
2022-11-29T21:50:27.166Z,8.17
2022-11-29T21:52:53.773Z,7.63
2022-11-29T21:55:20.368Z,8.53
2022-11-29T21:57:46.964Z,7.83
2022-11-29T22:00:14.203Z,7.10
2022-11-29T22:02:40.986Z,6.07
2022-11-29T22:05:09.437Z,7.53
2022-11-29T22:07:36.107Z,6.37
2022-11-29T22:10:09.933Z,7.73
2022-11-29T22:12:45.727Z,6.87
2022-11-29T22:15:24.102Z,6.73
2022-11-29T22:17:51.300Z,5.97
2022-11-29T22:20:17.885Z,6.50
2022-11-29T22:22:45.211Z,7.30
2022-11-29T22:25:11.769Z,9.60
2022-11-29T22:27:38.420Z,6.63
2022-11-29T22:30:05.765Z,7.13
2022-11-29T22:32:32.347Z,8.63
2022-11-29T22:34:58.888Z,5.27
2022-11-29T22:37:27.366Z,6.20
2022-11-29T22:39:53.984Z,7.10
2022-11-29T22:42:20.614Z,7.00
2022-11-29T22:44:47.444Z,6.70
2022-11-29T22:47:14.189Z,7.17
2022-11-29T22:49:40.774Z,7.17
2022-11-29T22:52:07.401Z,6.53
2022-11-29T22:54:33.989Z,7.37
2022-11-29T22:57:00.514Z,6.43
2022-11-29T22:59:27.069Z,6.47
2022-11-29T23:01:53.711Z,8.17
2022-11-29T23:04:20.328Z,6.90
2022-11-29T23:06:47.017Z,7.17
2022-11-29T23:09:16.886Z,6.10
2022-11-29T23:11:45.488Z,6.10
2022-11-29T23:14:12.698Z,6.10
2022-11-29T23:16:39.566Z,5.43
2022-11-29T23:19:06.225Z,5.37
2022-11-29T23:21:35.912Z,6.57
2022-11-29T23:24:02.553Z,5.20
2022-11-29T23:26:36.400Z,7.07
2022-11-29T23:29:04.208Z,5.80
2022-11-29T23:31:31.623Z,5.67
2022-11-29T23:33:58.445Z,6.87
2022-11-29T23:36:25.255Z,6.03
2022-11-29T23:38:52.038Z,5.30
2022-11-29T23:41:18.672Z,6.10
2022-11-29T23:43:45.215Z,6.70
2022-11-29T23:46:20.740Z,5.20
2022-11-29T23:48:48.283Z,5.93
2022-11-29T23:51:15.649Z,6.20
2022-11-29T23:53:42.680Z,6.73
2022-11-29T23:56:17.391Z,6.20
2022-11-29T23:58:44.871Z,7.77
